^^
Saratoga-Weather Station Historical Data
Daily Summary for June 7, 2020 Units:  Both    English   Metric
Daily Weekly Monthly Yearly Custom
  High: Low: Average:
Temperature: 39.9 °F /  4.4 °C 32.4 °F /  0.2 °C 37.9 °F /  3.3 °C
Dew Point: 37.8 °F /  3.2 °C 31.1 °F /  -0.5 °C 35.4 °F /  1.9 °C
Humidity: 95% 88% 91%
Wind Speed: 6mph /  9.7km/h - 0.7mph /  1.2km/h
Wind Gust: 7mph /  11.3km/h - -
Wind- - East
Pressure: 29.5 in /  1000.3 hPa 29.5 in /  999.3 hPa -
Precipitation: 0 in /  0.0 mm    
Historical Graphs
 
 
Tabular Data for June 7, 2020
Time Temperature Dew Point Pressure Wind Wind Speed Wind Gust Humidity Rainfall Rate (Hourly) solar
09:04 35.6 °F /  2 °C 34 °F /  1.1 °C 29.5in /  999.7hPa Calm   1mph /  1.6km/h 94% 0in /  0.0mm 26 W/m2
09:09 35.8 °F /  2.1 °C 34.2 °F /  1.2 °C 29.5in /  999.7hPa Calm   1mph /  1.6km/h 94% 0in /  0.0mm 30 W/m2
09:14 35.8 °F /  2.1 °C 34.2 °F /  1.2 °C 29.5in /  999.7hPa Calm   1mph /  1.6km/h 94% 0in /  0.0mm 35 W/m2
09:19 36 °F /  2.2 °C 34.3 °F /  1.3 °C 29.5in /  999.7hPa Calm     94% 0in /  0.0mm 42 W/m2
09:24 36 °F /  2.2 °C 34.3 °F /  1.3 °C 29.5in /  999.7hPa Calm     94% 0in /  0.0mm 47 W/m2
09:29 36.1 °F /  2.3 °C 34.5 °F /  1.4 °C 29.5in /  999.7hPa Calm   1mph /  1.6km/h 94% 0in /  0.0mm 53 W/m2
09:34 36.1 °F /  2.3 °C 34.5 °F /  1.4 °C 29.5in /  999.7hPa SE 0.9mph /  1.4km/h 2mph /  3.2km/h 94% 0in /  0.0mm 53 W/m2
09:39 36.3 °F /  2.4 °C 34.7 °F /  1.5 °C 29.5in /  999.7hPa ENE 2mph /  3.2km/h 2mph /  3.2km/h 94% 0in /  0.0mm 58 W/m2
09:44 36.3 °F /  2.4 °C 34.7 °F /  1.5 °C 29.5in /  999.7hPa ENE 2mph /  3.2km/h 2mph /  3.2km/h 94% 0in /  0.0mm 65 W/m2
09:49 36.5 °F /  2.5 °C 34.9 °F /  1.6 °C 29.5in /  1000.0hPa NE 2mph /  3.2km/h 2mph /  3.2km/h 94% 0in /  0.0mm 63 W/m2
09:54 36.7 °F /  2.6 °C 35.1 °F /  1.7 °C 29.5in /  999.7hPa Calm   3mph /  4.8km/h 94% 0in /  0.0mm 58 W/m2
09:59 36.7 °F /  2.6 °C 35.1 °F /  1.7 °C 29.5in /  1000.0hPa ENE 0.9mph /  1.4km/h 1mph /  1.6km/h 94% 0in /  0.0mm 58 W/m2
10:04 36.9 °F /  2.7 °C 35.1 °F /  1.7 °C 29.5in /  1000.0hPa Calm   3mph /  4.8km/h 93% 0in /  0.0mm 67 W/m2
10:09 37 °F /  2.8 °C 35.2 °F /  1.8 °C 29.5in /  1000.0hPa Calm   3mph /  4.8km/h 93% 0in /  0.0mm 67 W/m2
10:14 37 °F /  2.8 °C 35.2 °F /  1.8 °C 29.5in /  1000.0hPa East 2mph /  3.2km/h 3mph /  4.8km/h 93% 0in /  0.0mm 65 W/m2
10:19 37 °F /  2.8 °C 35.2 °F /  1.8 °C 29.5in /  1000.0hPa Calm   4mph /  6.4km/h 93% 0in /  0.0mm 60 W/m2
10:24 37 °F /  2.8 °C 35.2 °F /  1.8 °C 29.5in /  1000.3hPa East 2mph /  3.2km/h 2mph /  3.2km/h 93% 0in /  0.0mm 60 W/m2
10:29 37.2 °F /  2.9 °C 35.4 °F /  1.9 °C 29.5in /  1000.3hPa Calm   4mph /  6.4km/h 93% 0in /  0.0mm 65 W/m2
10:35 37.2 °F /  2.9 °C 35.4 °F /  1.9 °C 29.5in /  1000.3hPa East 2mph /  3.2km/h 2mph /  3.2km/h 93% 0in /  0.0mm 69 W/m2
10:40 37.4 °F /  3 °C 35.6 °F /  2 °C 29.5in /  1000.3hPa ENE 0.9mph /  1.4km/h 2mph /  3.2km/h 93% 0in /  0.0mm 91 W/m2
10:45 37.4 °F /  3 °C 35.6 °F /  2 °C 29.5in /  1000.3hPa ENE 2mph /  3.2km/h 3mph /  4.8km/h 93% 0in /  0.0mm 95 W/m2
10:50 37.6 °F /  3.1 °C 35.8 °F /  2.1 °C 29.5in /  1000.3hPa ENE 2mph /  3.2km/h 3mph /  4.8km/h 93% 0in /  0.0mm 102 W/m2
10:55 37.6 °F /  3.1 °C 35.8 °F /  2.1 °C 29.5in /  1000.3hPa ESE 2mph /  3.2km/h 2mph /  3.2km/h 93% 0in /  0.0mm 109 W/m2
11:00 37.8 °F /  3.2 °C 35.6 °F /  2 °C 29.5in /  1000.0hPa Calm   2mph /  3.2km/h 92% 0in /  0.0mm 100 W/m2
11:05 37.8 °F /  3.2 °C 35.6 °F /  2 °C 29.5in /  1000.0hPa East 0.9mph /  1.4km/h 2mph /  3.2km/h 92% 0in /  0.0mm 97 W/m2
11:10 37.8 °F /  3.2 °C 35.6 °F /  2 °C 29.5in /  1000.0hPa ENE 0.9mph /  1.4km/h 1mph /  1.6km/h 92% 0in /  0.0mm 98 W/m2
11:15 37.9 °F /  3.3 °C 35.8 °F /  2.1 °C 29.5in /  1000.0hPa East 0.9mph /  1.4km/h 3mph /  4.8km/h 92% 0in /  0.0mm 102 W/m2
11:20 37.9 °F /  3.3 °C 35.8 °F /  2.1 °C 29.5in /  1000.0hPa ENE 2mph /  3.2km/h 2mph /  3.2km/h 92% 0in /  0.0mm 109 W/m2
11:25 37.9 °F /  3.3 °C 35.8 °F /  2.1 °C 29.5in /  1000.0hPa Calm   1mph /  1.6km/h 92% 0in /  0.0mm 132 W/m2
11:30 38.1 °F /  3.4 °C 36 °F /  2.2 °C 29.5in /  1000.0hPa Calm   2mph /  3.2km/h 92% 0in /  0.0mm 160 W/m2
11:35 38.5 °F /  3.6 °C 36.3 °F /  2.4 °C 29.5in /  1000.0hPa East 0.9mph /  1.4km/h 2mph /  3.2km/h 92% 0in /  0.0mm 128 W/m2
11:40 38.8 °F /  3.8 °C 36.7 °F /  2.6 °C 29.5in /  1000.0hPa East 0.9mph /  1.4km/h 1mph /  1.6km/h 92% 0in /  0.0mm 111 W/m2
11:45 39 °F /  3.9 °C 36.7 °F /  2.6 °C 29.5in /  1000.0hPa NW 2mph /  3.2km/h 4mph /  6.4km/h 91% 0in /  0.0mm 114 W/m2
11:50 39 °F /  3.9 °C 36.3 °F /  2.4 °C 29.5in /  1000.0hPa SE 0.9mph /  1.4km/h 3mph /  4.8km/h 90% 0in /  0.0mm 116 W/m2
11:55 39.4 °F /  4.1 °C 36.7 °F /  2.6 °C 29.5in /  1000.0hPa Calm   4mph /  6.4km/h 90% 0in /  0.0mm 139 W/m2
12:00 39.4 °F /  4.1 °C 36.5 °F /  2.5 °C 29.5in /  1000.0hPa SW 4mph /  6.4km/h 5mph /  8km/h 89% 0in /  0.0mm 98 W/m2
12:05 39.6 °F /  4.2 °C 36.5 °F /  2.5 °C 29.5in /  1000.0hPa Calm   2mph /  3.2km/h 89% 0in /  0.0mm 109 W/m2
12:10 39.6 °F /  4.2 °C 36.5 °F /  2.5 °C 29.5in /  1000.0hPa NE 4mph /  6.4km/h 4mph /  6.4km/h 89% 0in /  0.0mm 104 W/m2
12:15 39.6 °F /  4.2 °C 36.3 °F /  2.4 °C 29.5in /  999.7hPa NE 0.9mph /  1.4km/h 3mph /  4.8km/h 88% 0in /  0.0mm 84 W/m2
12:20 39.7 °F /  4.3 °C 36.7 °F /  2.6 °C 29.5in /  999.7hPa East 0.9mph /  1.4km/h 2mph /  3.2km/h 89% 0in /  0.0mm 97 W/m2
12:25 39.7 °F /  4.3 °C 36.5 °F /  2.5 °C 29.5in /  999.7hPa Calm   3mph /  4.8km/h 88% 0in /  0.0mm 67 W/m2
12:30 39.9 °F /  4.4 °C 36.7 °F /  2.6 °C 29.5in /  999.7hPa Calm   1mph /  1.6km/h 88% 0in /  0.0mm 60 W/m2
12:35 39.9 °F /  4.4 °C 36.7 °F /  2.6 °C 29.5in /  999.7hPa ESE 2mph /  3.2km/h 4mph /  6.4km/h 88% 0in /  0.0mm 51 W/m2
12:40 39.9 °F /  4.4 °C 36.9 °F /  2.7 °C 29.5in /  999.7hPa ESE 2mph /  3.2km/h 4mph /  6.4km/h 89% 0in /  0.0mm 58 W/m2
12:45 39.9 °F /  4.4 °C 36.9 °F /  2.7 °C 29.5in /  999.7hPa ESE 0.9mph /  1.4km/h 2mph /  3.2km/h 89% 0in /  0.0mm 63 W/m2
12:50 39.9 °F /  4.4 °C 36.9 °F /  2.7 °C 29.5in /  999.7hPa ESE 0.9mph /  1.4km/h 2mph /  3.2km/h 89% 0in /  0.0mm 49 W/m2
12:55 39.7 °F /  4.3 °C 36.7 °F /  2.6 °C 29.5in /  999.7hPa East 2mph /  3.2km/h 3mph /  4.8km/h 89% 0in /  0.0mm 81 W/m2
13:00 39.7 °F /  4.3 °C 36.7 °F /  2.6 °C 29.5in /  999.7hPa Calm   3mph /  4.8km/h 89% 0in /  0.0mm 60 W/m2
13:05 39.7 °F /  4.3 °C 36.7 °F /  2.6 °C 29.5in /  999.7hPa Calm   4mph /  6.4km/h 89% 0in /  0.0mm 54 W/m2
13:10 39.7 °F /  4.3 °C 37 °F /  2.8 °C 29.5in /  999.3hPa East 2mph /  3.2km/h 3mph /  4.8km/h 90% 0in /  0.0mm 77 W/m2
13:15 39.7 °F /  4.3 °C 37 °F /  2.8 °C 29.5in /  999.3hPa East 0.9mph /  1.4km/h 4mph /  6.4km/h 90% 0in /  0.0mm 86 W/m2
13:20 39.9 °F /  4.4 °C 36.9 °F /  2.7 °C 29.5in /  999.3hPa ENE 0.9mph /  1.4km/h 4mph /  6.4km/h 89% 0in /  0.0mm 111 W/m2
13:25 39.9 °F /  4.4 °C 36.9 °F /  2.7 °C 29.5in /  999.3hPa East 2mph /  3.2km/h 3mph /  4.8km/h 89% 0in /  0.0mm 88 W/m2
13:30 39.9 °F /  4.4 °C 36.9 °F /  2.7 °C 29.5in /  999.7hPa WNW 2mph /  3.2km/h 2mph /  3.2km/h 89% 0in /  0.0mm 58 W/m2
13:35 39.9 °F /  4.4 °C 36.9 °F /  2.7 °C 29.5in /  999.7hPa Calm   3mph /  4.8km/h 89% 0in /  0.0mm 47 W/m2
13:40 39.9 °F /  4.4 °C 36.9 °F /  2.7 °C 29.5in /  999.3hPa East 2mph /  3.2km/h 2mph /  3.2km/h 89% 0in /  0.0mm 40 W/m2
13:45 39.9 °F /  4.4 °C 36.9 °F /  2.7 °C 29.5in /  999.3hPa East 0.9mph /  1.4km/h 3mph /  4.8km/h 89% 0in /  0.0mm 44 W/m2
13:50 39.9 °F /  4.4 °C 36.9 °F /  2.7 °C 29.5in /  999.3hPa Calm   4mph /  6.4km/h 89% 0in /  0.0mm 44 W/m2
13:55 39.9 °F /  4.4 °C 36.9 °F /  2.7 °C 29.5in /  999.3hPa ESE 0.9mph /  1.4km/h 3mph /  4.8km/h 89% 0in /  0.0mm 35 W/m2
14:01 39.9 °F /  4.4 °C 37.2 °F /  2.9 °C 29.5in /  999.3hPa ESE 0.9mph /  1.4km/h 4mph /  6.4km/h 90% 0in /  0.0mm 32 W/m2
14:06 39.9 °F /  4.4 °C 37.2 °F /  2.9 °C 29.5in /  999.3hPa ESE 0.9mph /  1.4km/h 2mph /  3.2km/h 90% 0in /  0.0mm 35 W/m2
14:11 39.9 °F /  4.4 °C 37.2 °F /  2.9 °C 29.5in /  999.3hPa SE 2mph /  3.2km/h 3mph /  4.8km/h 90% 0in /  0.0mm 46 W/m2
14:16 39.9 °F /  4.4 °C 37.2 °F /  2.9 °C 29.5in /  999.3hPa ESE 2mph /  3.2km/h 3mph /  4.8km/h 90% 0in /  0.0mm 26 W/m2
14:21 39.9 °F /  4.4 °C 37.2 °F /  2.9 °C 29.5in /  999.3hPa SE 2mph /  3.2km/h 4mph /  6.4km/h 90% 0in /  0.0mm 25 W/m2
14:26 39.9 °F /  4.4 °C 37.2 °F /  2.9 °C 29.5in /  999.3hPa ESE 2mph /  3.2km/h 4mph /  6.4km/h 90% 0in /  0.0mm 21 W/m2
14:31 39.7 °F /  4.3 °C 37 °F /  2.8 °C 29.5in /  999.3hPa East 0.9mph /  1.4km/h 3mph /  4.8km/h 90% 0in /  0.0mm 37 W/m2
14:36 39.9 °F /  4.4 °C 37.2 °F /  2.9 °C 29.5in /  999.3hPa East 4mph /  6.4km/h 6mph /  9.7km/h 90% 0in /  0.0mm 30 W/m2
14:41 39.7 °F /  4.3 °C 37 °F /  2.8 °C 29.5in /  999.3hPa East 2mph /  3.2km/h 4mph /  6.4km/h 90% 0in /  0.0mm 19 W/m2
14:46 39.7 °F /  4.3 °C 37 °F /  2.8 °C 29.5in /  999.3hPa East 2.9mph /  4.7km/h 6mph /  9.7km/h 90% 0in /  0.0mm 18 W/m2
14:51 39.7 °F /  4.3 °C 37 °F /  2.8 °C 29.5in /  999.3hPa NE 4mph /  6.4km/h 6mph /  9.7km/h 90% 0in /  0.0mm 11 W/m2
14:56 39.7 °F /  4.3 °C 37 °F /  2.8 °C 29.5in /  999.7hPa ENE 2.9mph /  4.7km/h 7mph /  11.3km/h 90% 0in /  0.0mm 16 W/m2
15:01 39.7 °F /  4.3 °C 37 °F /  2.8 °C 29.5in /  999.7hPa ESE 0.9mph /  1.4km/h 7mph /  11.3km/h 90% 0in /  0.0mm 21 W/m2
15:06 39.7 °F /  4.3 °C 37 °F /  2.8 °C 29.5in /  999.7hPa ESE 6mph /  9.7km/h 6mph /  9.7km/h 90% 0in /  0.0mm 18 W/m2
15:11 39.7 °F /  4.3 °C 37 °F /  2.8 °C 29.5in /  999.7hPa East 2mph /  3.2km/h 4mph /  6.4km/h 90% 0in /  0.0mm 12 W/m2
15:16 39.7 °F /  4.3 °C 37 °F /  2.8 °C 29.5in /  999.7hPa East 2.9mph /  4.7km/h 6mph /  9.7km/h 90% 0in /  0.0mm 11 W/m2
15:21 39.7 °F /  4.3 °C 37 °F /  2.8 °C 29.5in /  999.7hPa Calm   3mph /  4.8km/h 90% 0in /  0.0mm 11 W/m2
15:26 39.7 °F /  4.3 °C 37 °F /  2.8 °C 29.5in /  999.7hPa ESE 0.9mph /  1.4km/h 6mph /  9.7km/h 90% 0in /  0.0mm 14 W/m2
15:31 39.7 °F /  4.3 °C 37.4 °F /  3 °C 29.5in /  999.7hPa ESE 0.9mph /  1.4km/h 2mph /  3.2km/h 91% 0in /  0.0mm 12 W/m2
15:36 39.7 °F /  4.3 °C 37.4 °F /  3 °C 29.5in /  999.7hPa East 0.9mph /  1.4km/h 2mph /  3.2km/h 91% 0in /  0.0mm 12 W/m2
15:41 39.7 °F /  4.3 °C 37.4 °F /  3 °C 29.5in /  999.7hPa East 0.9mph /  1.4km/h 2mph /  3.2km/h 91% 0in /  0.0mm 16 W/m2
15:46 39.7 °F /  4.3 °C 37.4 °F /  3 °C 29.5in /  999.7hPa ENE 2mph /  3.2km/h 3mph /  4.8km/h 91% 0in /  0.0mm 25 W/m2
15:51 39.9 °F /  4.4 °C 37.6 °F /  3.1 °C 29.5in /  999.7hPa East 0.9mph /  1.4km/h 2mph /  3.2km/h 91% 0in /  0.0mm 32 W/m2
15:56 39.9 °F /  4.4 °C 37.6 °F /  3.1 °C 29.5in /  999.7hPa East 0.9mph /  1.4km/h 3mph /  4.8km/h 91% 0in /  0.0mm 25 W/m2
16:01 39.9 °F /  4.4 °C 37.6 °F /  3.1 °C 29.5in /  999.7hPa ENE 0.9mph /  1.4km/h 3mph /  4.8km/h 91% 0in /  0.0mm 19 W/m2
16:06 39.9 °F /  4.4 °C 37.8 °F /  3.2 °C 29.5in /  999.7hPa East 0.9mph /  1.4km/h 3mph /  4.8km/h 92% 0in /  0.0mm 11 W/m2
16:11 39.9 °F /  4.4 °C 37.8 °F /  3.2 °C 29.5in /  999.7hPa East 0.9mph /  1.4km/h 2mph /  3.2km/h 92% 0in /  0.0mm 0 W/m2
16:16 39.9 °F /  4.4 °C 37.8 °F /  3.2 °C 29.5in /  999.7hPa Calm   3mph /  4.8km/h 92% 0in /  0.0mm 0 W/m2
16:21 39.9 °F /  4.4 °C 37.8 °F /  3.2 °C 29.5in /  999.7hPa East 2mph /  3.2km/h 4mph /  6.4km/h 92% 0in /  0.0mm 5 W/m2
16:26 39.9 °F /  4.4 °C 37.6 °F /  3.1 °C 29.5in /  999.7hPa SE 2mph /  3.2km/h 4mph /  6.4km/h 91% 0in /  0.0mm 0 W/m2
16:31 39.7 °F /  4.3 °C 37.4 °F /  3 °C 29.5in /  999.7hPa ENE 2.9mph /  4.7km/h 5mph /  8km/h 91% 0in /  0.0mm 0 W/m2
16:36 39.7 °F /  4.3 °C 37 °F /  2.8 °C 29.5in /  999.7hPa East 2mph /  3.2km/h 4mph /  6.4km/h 90% 0in /  0.0mm 0 W/m2
16:41 39.7 °F /  4.3 °C 37 °F /  2.8 °C 29.5in /  999.7hPa East 0.9mph /  1.4km/h 4mph /  6.4km/h 90% 0in /  0.0mm 0 W/m2
16:46 39.7 °F /  4.3 °C 37 °F /  2.8 °C 29.5in /  999.7hPa East 2mph /  3.2km/h 3mph /  4.8km/h 90% 0in /  0.0mm 0 W/m2
16:51 39.7 °F /  4.3 °C 37 °F /  2.8 °C 29.5in /  999.7hPa East 0.9mph /  1.4km/h 2mph /  3.2km/h 90% 0in /  0.0mm 0 W/m2
16:56 39.7 °F /  4.3 °C 36.7 °F /  2.6 °C 29.5in /  999.7hPa East 2mph /  3.2km/h 3mph /  4.8km/h 89% 0in /  0.0mm 0 W/m2
17:01 39.7 °F /  4.3 °C 36.7 °F /  2.6 °C 29.5in /  999.7hPa ESE 0.9mph /  1.4km/h 3mph /  4.8km/h 89% 0in /  0.0mm 0 W/m2
17:06 39.7 °F /  4.3 °C 36.7 °F /  2.6 °C 29.5in /  999.7hPa ENE 2mph /  3.2km/h 4mph /  6.4km/h 89% 0in /  0.0mm 0 W/m2
17:11 39.7 °F /  4.3 °C 36.7 °F /  2.6 °C 29.5in /  1000.0hPa Calm   7mph /  11.3km/h 89% 0in /  0.0mm 0 W/m2
17:16 39.7 °F /  4.3 °C 36.7 °F /  2.6 °C 29.5in /  1000.0hPa ENE 2mph /  3.2km/h 4mph /  6.4km/h 89% 0in /  0.0mm 0 W/m2
17:21 39.6 °F /  4.2 °C 36.3 °F /  2.4 °C 29.5in /  1000.0hPa East 0.9mph /  1.4km/h 6mph /  9.7km/h 88% 0in /  0.0mm 0 W/m2
17:26 39.7 °F /  4.3 °C 36.7 °F /  2.6 °C 29.5in /  1000.0hPa Calm   1mph /  1.6km/h 89% 0in /  0.0mm 0 W/m2
17:31 39.6 °F /  4.2 °C 36.5 °F /  2.5 °C 29.5in /  1000.0hPa East 2mph /  3.2km/h 4mph /  6.4km/h 89% 0in /  0.0mm 0 W/m2
17:36 39.6 °F /  4.2 °C 36.3 °F /  2.4 °C 29.5in /  1000.0hPa East 0.9mph /  1.4km/h 2mph /  3.2km/h 88% 0in /  0.0mm 0 W/m2
17:41 39.6 °F /  4.2 °C 36.3 °F /  2.4 °C 29.5in /  1000.0hPa ESE 0.9mph /  1.4km/h 2mph /  3.2km/h 88% 0in /  0.0mm 0 W/m2
17:46 39.6 °F /  4.2 °C 36.3 °F /  2.4 °C 29.5in /  1000.0hPa ESE 0.9mph /  1.4km/h 3mph /  4.8km/h 88% 0in /  0.0mm 0 W/m2
17:51 39.4 °F /  4.1 °C 36.1 °F /  2.3 °C 29.5in /  1000.0hPa East 2mph /  3.2km/h 2mph /  3.2km/h 88% 0in /  0.0mm 0 W/m2
17:56 39.4 °F /  4.1 °C 36.1 °F /  2.3 °C 29.5in /  1000.0hPa Calm   4mph /  6.4km/h 88% 0in /  0.0mm 0 W/m2
18:01 39.2 °F /  4 °C 36 °F /  2.2 °C 29.5in /  1000.0hPa Calm   3mph /  4.8km/h 88% 0in /  0.0mm 0 W/m2
18:06 39.2 °F /  4 °C 36 °F /  2.2 °C 29.5in /  1000.0hPa ENE 2mph /  3.2km/h 3mph /  4.8km/h 88% 0in /  0.0mm 0 W/m2
18:11 39.2 °F /  4 °C 36 °F /  2.2 °C 29.5in /  1000.0hPa ENE 0.9mph /  1.4km/h 2mph /  3.2km/h 88% 0in /  0.0mm 0 W/m2
18:16 39.2 °F /  4 °C 36 °F /  2.2 °C 29.5in /  1000.0hPa ENE 0.9mph /  1.4km/h 1mph /  1.6km/h 88% 0in /  0.0mm 0 W/m2
18:21 39 °F /  3.9 °C 35.8 °F /  2.1 °C 29.5in /  1000.0hPa ENE 0.9mph /  1.4km/h 1mph /  1.6km/h 88% 0in /  0.0mm 0 W/m2
18:26 39 °F /  3.9 °C 35.8 °F /  2.1 °C 29.5in /  1000.0hPa Calm     88% 0in /  0.0mm 0 W/m2
18:31 38.8 °F /  3.8 °C 35.6 °F /  2 °C 29.5in /  1000.0hPa Calm   1mph /  1.6km/h 88% 0in /  0.0mm 0 W/m2
18:36 38.8 °F /  3.8 °C 35.6 °F /  2 °C 29.5in /  1000.0hPa Calm     88% 0in /  0.0mm 0 W/m2
18:41 38.8 °F /  3.8 °C 35.6 °F /  2 °C 29.5in /  1000.0hPa Calm     88% 0in /  0.0mm 0 W/m2
18:46 38.7 °F /  3.7 °C 35.8 °F /  2.1 °C 29.5in /  1000.0hPa Calm     89% 0in /  0.0mm 0 W/m2
18:51 38.7 °F /  3.7 °C 35.8 °F /  2.1 °C 29.5in /  1000.0hPa Calm   1mph /  1.6km/h 89% 0in /  0.0mm 0 W/m2
18:56 38.5 °F /  3.6 °C 35.6 °F /  2 °C 29.5in /  1000.0hPa Calm     89% 0in /  0.0mm 0 W/m2
19:01 38.5 °F /  3.6 °C 35.6 °F /  2 °C 29.5in /  1000.3hPa Calm     89% 0in /  0.0mm 0 W/m2
19:06 38.3 °F /  3.5 °C 35.4 °F /  1.9 °C 29.5in /  1000.0hPa Calm     89% 0in /  0.0mm 0 W/m2
19:11 38.1 °F /  3.4 °C 35.4 °F /  1.9 °C 29.5in /  1000.0hPa Calm     90% 0in /  0.0mm 0 W/m2
19:16 37.9 °F /  3.3 °C 35.2 °F /  1.8 °C 29.5in /  1000.0hPa Calm     90% 0in /  0.0mm 0 W/m2
19:21 37.9 °F /  3.3 °C 35.2 °F /  1.8 °C 29.5in /  1000.0hPa Calm     90% 0in /  0.0mm 0 W/m2
19:26 37.9 °F /  3.3 °C 35.2 °F /  1.8 °C 29.5in /  1000.0hPa Calm     90% 0in /  0.0mm 0 W/m2
19:31 37.8 °F /  3.2 °C 35.1 °F /  1.7 °C 29.5in /  1000.0hPa Calm   1mph /  1.6km/h 90% 0in /  0.0mm 0 W/m2
19:36 37.8 °F /  3.2 °C 35.1 °F /  1.7 °C 29.5in /  1000.0hPa Calm     90% 0in /  0.0mm 0 W/m2
19:41 37.8 °F /  3.2 °C 35.4 °F /  1.9 °C 29.5in /  1000.0hPa Calm   1mph /  1.6km/h 91% 0in /  0.0mm 0 W/m2
19:46 37.8 °F /  3.2 °C 35.4 °F /  1.9 °C 29.5in /  1000.0hPa Calm     91% 0in /  0.0mm 0 W/m2
19:51 37.8 °F /  3.2 °C 35.4 °F /  1.9 °C 29.5in /  1000.0hPa Calm   1mph /  1.6km/h 91% 0in /  0.0mm 0 W/m2
19:56 37.6 °F /  3.1 °C 35.2 °F /  1.8 °C 29.5in /  1000.0hPa Calm     91% 0in /  0.0mm 0 W/m2
20:01 37.6 °F /  3.1 °C 35.2 °F /  1.8 °C 29.5in /  1000.0hPa Calm   1mph /  1.6km/h 91% 0in /  0.0mm 0 W/m2
20:06 37.6 °F /  3.1 °C 35.2 °F /  1.8 °C 29.5in /  1000.0hPa Calm     91% 0in /  0.0mm 0 W/m2
20:11 37.6 °F /  3.1 °C 35.2 °F /  1.8 °C 29.5in /  1000.0hPa Calm     91% 0in /  0.0mm 0 W/m2
20:16 37.4 °F /  3 °C 35.1 °F /  1.7 °C 29.5in /  1000.0hPa Calm     91% 0in /  0.0mm 0 W/m2
20:21 37.4 °F /  3 °C 35.1 °F /  1.7 °C 29.5in /  1000.0hPa Calm     91% 0in /  0.0mm 0 W/m2
20:26 37.4 °F /  3 °C 35.2 °F /  1.8 °C 29.5in /  1000.3hPa Calm     92% 0in /  0.0mm 0 W/m2
20:31 37.2 °F /  2.9 °C 35.1 °F /  1.7 °C 29.5in /  1000.3hPa Calm     92% 0in /  0.0mm 0 W/m2
20:36 37.2 °F /  2.9 °C 35.1 °F /  1.7 °C 29.5in /  1000.3hPa Calm     92% 0in /  0.0mm 0 W/m2
20:41 37.2 °F /  2.9 °C 35.1 °F /  1.7 °C 29.5in /  1000.0hPa Calm     92% 0in /  0.0mm 0 W/m2
20:46 37.2 °F /  2.9 °C 35.1 °F /  1.7 °C 29.5in /  1000.0hPa Calm     92% 0in /  0.0mm 0 W/m2
20:51 37 °F /  2.8 °C 34.9 °F /  1.6 °C 29.5in /  1000.3hPa Calm   1mph /  1.6km/h 92% 0in /  0.0mm 0 W/m2
20:56 37 °F /  2.8 °C 34.9 °F /  1.6 °C 29.5in /  1000.0hPa Calm     92% 0in /  0.0mm 0 W/m2
21:01 37 °F /  2.8 °C 34.9 °F /  1.6 °C 29.5in /  1000.3hPa Calm   1mph /  1.6km/h 92% 0in /  0.0mm 0 W/m2
21:06 36.9 °F /  2.7 °C 34.7 °F /  1.5 °C 29.5in /  1000.0hPa Calm     92% 0in /  0.0mm 0 W/m2
21:11 36.9 °F /  2.7 °C 34.7 °F /  1.5 °C 29.5in /  1000.0hPa Calm     92% 0in /  0.0mm 0 W/m2
21:16 36.9 °F /  2.7 °C 34.7 °F /  1.5 °C 29.5in /  1000.0hPa Calm     92% 0in /  0.0mm 0 W/m2
21:21 36.7 °F /  2.6 °C 34.5 °F /  1.4 °C 29.5in /  1000.0hPa Calm     92% 0in /  0.0mm 0 W/m2
21:26 36.5 °F /  2.5 °C 34.3 °F /  1.3 °C 29.5in /  1000.0hPa Calm   1mph /  1.6km/h 92% 0in /  0.0mm 0 W/m2
21:31 36.3 °F /  2.4 °C 34.2 °F /  1.2 °C 29.5in /  1000.0hPa Calm     92% 0in /  0.0mm 0 W/m2
21:36 36.3 °F /  2.4 °C 34.2 °F /  1.2 °C 29.5in /  1000.0hPa Calm     92% 0in /  0.0mm 0 W/m2
21:42 36.1 °F /  2.3 °C 34 °F /  1.1 °C 29.5in /  1000.0hPa Calm     92% 0in /  0.0mm 0 W/m2
21:47 36 °F /  2.2 °C 33.6 °F /  0.9 °C 29.5in /  999.7hPa Calm     91% 0in /  0.0mm 0 W/m2
21:52 35.8 °F /  2.1 °C 33.6 °F /  0.9 °C 29.5in /  999.7hPa Calm     92% 0in /  0.0mm 0 W/m2
21:57 35.4 °F /  1.9 °C 33.3 °F /  0.7 °C 29.5in /  1000.0hPa Calm     92% 0in /  0.0mm 0 W/m2
22:02 35.2 °F /  1.8 °C 32.9 °F /  0.5 °C 29.5in /  1000.0hPa Calm     91% 0in /  0.0mm 0 W/m2
22:07 35.1 °F /  1.7 °C 32.9 °F /  0.5 °C 29.5in /  999.7hPa Calm     92% 0in /  0.0mm 0 W/m2
22:12 34.9 °F /  1.6 °C 32.7 °F /  0.4 °C 29.5in /  999.7hPa Calm     92% 0in /  0.0mm 0 W/m2
22:17 34.7 °F /  1.5 °C 32.5 °F /  0.3 °C 29.5in /  1000.0hPa Calm     92% 0in /  0.0mm 0 W/m2
22:22 34.5 °F /  1.4 °C 32.7 °F /  0.4 °C 29.5in /  1000.0hPa Calm     93% 0in /  0.0mm 0 W/m2
22:27 34.5 °F /  1.4 °C 32.7 °F /  0.4 °C 29.5in /  999.7hPa Calm     93% 0in /  0.0mm 0 W/m2
22:32 34.3 °F /  1.3 °C 32.5 °F /  0.3 °C 29.5in /  999.7hPa Calm     93% 0in /  0.0mm 0 W/m2
22:37 34.2 °F /  1.2 °C 32.4 °F /  0.2 °C 29.5in /  999.7hPa Calm     93% 0in /  0.0mm 0 W/m2
22:42 33.8 °F /  1 °C 32 °F /  0 °C 29.5in /  999.7hPa Calm     93% 0in /  0.0mm 0 W/m2
22:47 33.6 °F /  0.9 °C 31.8 °F /  -0.1 °C 29.5in /  999.7hPa Calm     93% 0in /  0.0mm 0 W/m2
22:52 33.6 °F /  0.9 °C 32 °F /  0 °C 29.5in /  999.7hPa Calm     94% 0in /  0.0mm 0 W/m2
22:57 33.4 °F /  0.8 °C 31.8 °F /  -0.1 °C 29.5in /  999.7hPa Calm     94% 0in /  0.0mm 0 W/m2
23:02 33.4 °F /  0.8 °C 31.8 °F /  -0.1 °C 29.5in /  999.7hPa Calm     94% 0in /  0.0mm 0 W/m2
23:07 33.3 °F /  0.7 °C 31.6 °F /  -0.2 °C 29.5in /  999.7hPa Calm     94% 0in /  0.0mm 0 W/m2
23:12 33.3 °F /  0.7 °C 31.6 °F /  -0.2 °C 29.5in /  999.7hPa Calm     94% 0in /  0.0mm 0 W/m2
23:17 33.1 °F /  0.6 °C 31.5 °F /  -0.3 °C 29.5in /  999.7hPa Calm     94% 0in /  0.0mm 0 W/m2
23:22 33.1 °F /  0.6 °C 31.5 °F /  -0.3 °C 29.5in /  999.7hPa Calm     94% 0in /  0.0mm 0 W/m2
23:27 33.1 °F /  0.6 °C 31.5 °F /  -0.3 °C 29.5in /  999.7hPa Calm     94% 0in /  0.0mm 0 W/m2
23:32 32.9 °F /  0.5 °C 31.6 °F /  -0.2 °C 29.5in /  999.7hPa Calm     95% 0in /  0.0mm 0 W/m2
23:37 32.7 °F /  0.4 °C 31.1 °F /  -0.5 °C 29.5in /  999.7hPa Calm     94% 0in /  0.0mm 0 W/m2
23:42 32.7 °F /  0.4 °C 31.1 °F /  -0.5 °C 29.5in /  999.7hPa Calm     94% 0in /  0.0mm 0 W/m2
23:47 32.5 °F /  0.3 °C 31.3 °F /  -0.4 °C 29.5in /  999.7hPa Calm     95% 0in /  0.0mm 0 W/m2
23:52 32.5 °F /  0.3 °C 31.3 °F /  -0.4 °C 29.5in /  999.7hPa Calm     95% 0in /  0.0mm 0 W/m2
23:57 32.4 °F /  0.2 °C 31.1 °F /  -0.5 °C 29.5in /  999.7hPa Calm     95% 0in /  0.0mm 0 W/m2
Juneau County Weather
Compliments of Weather Underground - 2 mb